Kassel, Germany

03:58 PM CEST on Juni 27, 2017 (GMT +0200)
Bühlchenweg | | Change Station

Elev 643 ft 51.28 °N, 9.43 °E | Updated 2 minutes ago

Regn
Regn
74.1 °F
Feels Like 77 °F
N
1.2
Vind Växlande Vind from Ostlig
Gusts 3.1 miles/tim

Idag
High -- | Low -- °F
--% Chance of Precip.
Yesterday
High -- | Low -- °F
Precip. -- tum
Lufttryck 29.80 tum
Sikt -9999.0 miles
Molnigt
Värmeindex 77 °F
Daggpunkt 58 °F
Luftfuktighet 57%
Rainfall 0.00 tum
Snow Depth Not available.
5:08 AM 9:42 PM
Första kvarteret, 16% visible
METAR EDVK 271350Z 11007KT 070V140 CAVOK 21/14 Q1009
Lufttryck 29.80 tum
Sikt -9999.0 miles
Molnigt
Värmeindex 77 °F
Daggpunkt 58 °F
Luftfuktighet 57%
Rainfall 0.00 tum
Snow Depth Not available.
5:08 AM 9:42 PM
Första kvarteret, 16% visible
METAR EDVK 271350Z 11007KT 070V140 CAVOK 21/14 Q1009

Get Severe Weather Alerts

Thanks for signing up!

Be on the lookout for a verification email in your inbox.

You'll start receiving the daily forecast at 6 AM.

×

10-Day Weather Forecast

×

Almanac

Astronomi

Jun. 27, 2017 Rise Set
Actual Time
Civil Twilight
Nautical Twilight
Astronomical Twilight
Månen
Length Of Visible Light
Dagens längd
Tomorrow will be .
, % of the Moon is Illuminated

Today's Extremes

Country Highs Country Lows

Community

WunderPhotos

Category 6

Welcome to Category 6. This is the collective home for Weather Underground's featured writeups by Dr. Jeff Masters (right), Bob Henson (left), Chris Burt, and other regular contributors.

Nearby

Air Quality

  Air Quality AQ Index Pollutant
Not available.

Snödjup

Station Depth Elevation

Earthquake Activity

Stad Distance Mag. Time & Date
Minimum magnitude displayed is 2.5.

Coastal Water Temperatures

Plats Temperatur

Stations

Nearby Weather Stations

Station Location Temp Vindavkylning Daggpunkt Luftfuktighet Vind Precip. Elev Uppdaterad Type